sensor_id;sensor_type;location;lat;lon;timestamp;P1;durP1;ratioP1;P2;durP2;ratioP2
8187;SDS011;4135;49.184;9.722;2023-02-13T00:02:23;3.22;;;1.58;;
8187;SDS011;4135;49.184;9.722;2023-02-13T00:04:53;2.58;;;1.55;;
8187;SDS011;4135;49.184;9.722;2023-02-13T00:07:22;3.58;;;1.85;;
8187;SDS011;4135;49.184;9.722;2023-02-13T00:09:52;3.83;;;1.58;;
8187;SDS011;4135;49.184;9.722;2023-02-13T00:12:21;2.15;;;1.58;;
8187;SDS011;4135;49.184;9.722;2023-02-13T00:14:51;3.88;;;1.70;;
8187;SDS011;4135;49.184;9.722;2023-02-13T00:17:21;2.63;;;1.30;;
8187;SDS011;4135;49.184;9.722;2023-02-13T00:19:50;2.40;;;1.38;;
8187;SDS011;4135;49.184;9.722;2023-02-13T00:22:20;4.38;;;1.40;;
8187;SDS011;4135;49.184;9.722;2023-02-13T00:24:49;2.63;;;1.48;;
8187;SDS011;4135;49.184;9.722;2023-02-13T00:27:19;7.53;;;1.55;;
8187;SDS011;4135;49.184;9.722;2023-02-13T00:29:49;2.35;;;1.60;;
8187;SDS011;4135;49.184;9.722;2023-02-13T00:32:18;2.42;;;1.45;;
8187;SDS011;4135;49.184;9.722;2023-02-13T00:34:48;2.30;;;1.50;;
8187;SDS011;4135;49.184;9.722;2023-02-13T00:37:17;3.28;;;1.80;;
8187;SDS011;4135;49.184;9.722;2023-02-13T00:39:46;4.70;;;1.60;;
8187;SDS011;4135;49.184;9.722;2023-02-13T00:42:16;4.93;;;1.60;;
8187;SDS011;4135;49.184;9.722;2023-02-13T00:44:45;2.55;;;1.80;;
8187;SDS011;4135;49.184;9.722;2023-02-13T00:47:15;4.53;;;1.70;;
8187;SDS011;4135;49.184;9.722;2023-02-13T00:49:44;3.97;;;2.45;;
8187;SDS011;4135;49.184;9.722;2023-02-13T00:52:14;2.70;;;1.52;;
8187;SDS011;4135;49.184;9.722;2023-02-13T00:54:44;2.78;;;1.75;;
8187;SDS011;4135;49.184;9.722;2023-02-13T00:57:15;2.70;;;1.70;;
8187;SDS011;4135;49.184;9.722;2023-02-13T00:59:44;2.50;;;1.23;;
8187;SDS011;4135;49.184;9.722;2023-02-13T01:02:14;7.22;;;1.48;;
8187;SDS011;4135;49.184;9.722;2023-02-13T01:04:43;3.33;;;1.33;;
8187;SDS011;4135;49.184;9.722;2023-02-13T01:07:13;5.15;;;1.45;;
8187;SDS011;4135;49.184;9.722;2023-02-13T01:09:43;3.17;;;1.33;;
8187;SDS011;4135;49.184;9.722;2023-02-13T01:12:12;3.05;;;1.63;;
8187;SDS011;4135;49.184;9.722;2023-02-13T01:14:42;3.40;;;1.65;;
8187;SDS011;4135;49.184;9.722;2023-02-13T01:17:11;3.13;;;1.77;;
8187;SDS011;4135;49.184;9.722;2023-02-13T01:19:41;3.95;;;2.03;;
8187;SDS011;4135;49.184;9.722;2023-02-13T01:22:10;4.57;;;2.17;;
8187;SDS011;4135;49.184;9.722;2023-02-13T01:24:40;2.30;;;1.20;;
8187;SDS011;4135;49.184;9.722;2023-02-13T01:27:09;2.47;;;1.30;;
8187;SDS011;4135;49.184;9.722;2023-02-13T01:29:39;7.82;;;1.85;;
8187;SDS011;4135;49.184;9.722;2023-02-13T01:32:08;4.97;;;1.60;;
8187;SDS011;4135;49.184;9.722;2023-02-13T01:34:38;4.18;;;1.60;;
8187;SDS011;4135;49.184;9.722;2023-02-13T01:37:07;3.35;;;1.52;;
8187;SDS011;4135;49.184;9.722;2023-02-13T01:39:37;1.65;;;1.35;;
8187;SDS011;4135;49.184;9.722;2023-02-13T01:42:16;4.28;;;1.38;;
8187;SDS011;4135;49.184;9.722;2023-02-13T01:44:51;2.83;;;1.40;;
8187;SDS011;4135;49.184;9.722;2023-02-13T01:50:10;3.40;;;1.60;;
8187;SDS011;4135;49.184;9.722;2023-02-13T01:52:47;3.00;;;1.25;;
8187;SDS011;4135;49.184;9.722;2023-02-13T01:55:29;1.20;;;0.98;;
8187;SDS011;4135;49.184;9.722;2023-02-13T01:58:07;5.20;;;1.90;;
8187;SDS011;4135;49.184;9.722;2023-02-13T02:00:41;2.35;;;1.02;;
8187;SDS011;4135;49.184;9.722;2023-02-13T02:03:24;3.85;;;1.75;;
8187;SDS011;4135;49.184;9.722;2023-02-13T02:06:01;5.70;;;1.17;;
8187;SDS011;4135;49.184;9.722;2023-02-13T02:08:31;1.35;;;1.23;;
8187;SDS011;4135;49.184;9.722;2023-02-13T02:11:04;2.78;;;0.93;;
8187;SDS011;4135;49.184;9.722;2023-02-13T02:13:43;1.98;;;1.20;;
8187;SDS011;4135;49.184;9.722;2023-02-13T02:16:13;2.33;;;1.05;;
8187;SDS011;4135;49.184;9.722;2023-02-13T02:18:43;2.42;;;1.45;;
8187;SDS011;4135;49.184;9.722;2023-02-13T02:30:20;2.35;;;1.30;;
8187;SDS011;4135;49.184;9.722;2023-02-13T02:33:17;2.53;;;1.25;;
8187;SDS011;4135;49.184;9.722;2023-02-13T02:35:56;2.33;;;1.17;;
8187;SDS011;4135;49.184;9.722;2023-02-13T02:50:26;1.23;;;1.20;;
8187;SDS011;4135;49.184;9.722;2023-02-13T02:56:19;2.65;;;1.10;;
8187;SDS011;4135;49.184;9.722;2023-02-13T02:59:09;1.67;;;1.23;;
8187;SDS011;4135;49.184;9.722;2023-02-13T03:02:00;1.27;;;1.17;;
8187;SDS011;4135;49.184;9.722;2023-02-13T03:04:53;3.08;;;1.25;;
8187;SDS011;4135;49.184;9.722;2023-02-13T03:07:43;3.78;;;1.65;;
8187;SDS011;4135;49.184;9.722;2023-02-13T03:10:25;2.90;;;1.25;;
8187;SDS011;4135;49.184;9.722;2023-02-13T03:13:27;2.70;;;1.13;;
8187;SDS011;4135;49.184;9.722;2023-02-13T03:16:11;3.05;;;1.33;;
8187;SDS011;4135;49.184;9.722;2023-02-13T03:19:05;2.80;;;0.73;;
8187;SDS011;4135;49.184;9.722;2023-02-13T03:22:05;4.53;;;1.20;;
8187;SDS011;4135;49.184;9.722;2023-02-13T03:25:11;1.42;;;1.00;;
8187;SDS011;4135;49.184;9.722;2023-02-13T03:27:44;1.73;;;1.50;;
8187;SDS011;4135;49.184;9.722;2023-02-13T03:36:28;3.08;;;1.35;;
8187;SDS011;4135;49.184;9.722;2023-02-13T03:42:06;2.55;;;1.42;;
8187;SDS011;4135;49.184;9.722;2023-02-13T03:44:47;2.53;;;1.50;;
8187;SDS011;4135;49.184;9.722;2023-02-13T03:47:42;2.42;;;1.33;;
8187;SDS011;4135;49.184;9.722;2023-02-13T03:50:13;2.45;;;1.65;;
8187;SDS011;4135;49.184;9.722;2023-02-13T03:52:45;2.47;;;1.45;;
8187;SDS011;4135;49.184;9.722;2023-02-13T03:55:24;2.50;;;1.15;;
8187;SDS011;4135;49.184;9.722;2023-02-13T03:58:23;4.22;;;1.90;;
8187;SDS011;4135;49.184;9.722;2023-02-13T04:01:17;2.80;;;1.55;;
8187;SDS011;4135;49.184;9.722;2023-02-13T04:03:54;1.67;;;1.15;;
8187;SDS011;4135;49.184;9.722;2023-02-13T04:06:29;1.30;;;0.95;;
8187;SDS011;4135;49.184;9.722;2023-02-13T04:09:02;1.17;;;1.13;;
8187;SDS011;4135;49.184;9.722;2023-02-13T04:14:15;1.42;;;1.27;;
8187;SDS011;4135;49.184;9.722;2023-02-13T04:17:01;2.42;;;1.33;;
8187;SDS011;4135;49.184;9.722;2023-02-13T04:19:45;2.03;;;1.10;;
8187;SDS011;4135;49.184;9.722;2023-02-13T04:22:15;2.42;;;1.30;;
8187;SDS011;4135;49.184;9.722;2023-02-13T04:24:45;2.03;;;1.20;;
8187;SDS011;4135;49.184;9.722;2023-02-13T04:27:15;1.38;;;1.05;;
8187;SDS011;4135;49.184;9.722;2023-02-13T04:29:45;2.65;;;1.30;;
8187;SDS011;4135;49.184;9.722;2023-02-13T04:32:15;1.25;;;1.02;;
8187;SDS011;4135;49.184;9.722;2023-02-13T04:34:45;1.30;;;1.25;;
8187;SDS011;4135;49.184;9.722;2023-02-13T04:37:14;1.48;;;1.08;;
8187;SDS011;4135;49.184;9.722;2023-02-13T04:39:44;1.67;;;1.30;;
8187;SDS011;4135;49.184;9.722;2023-02-13T04:42:13;1.83;;;1.02;;
8187;SDS011;4135;49.184;9.722;2023-02-13T04:44:43;1.13;;;0.80;;
8187;SDS011;4135;49.184;9.722;2023-02-13T04:47:12;3.10;;;1.42;;
8187;SDS011;4135;49.184;9.722;2023-02-13T04:49:42;1.73;;;1.02;;
8187;SDS011;4135;49.184;9.722;2023-02-13T04:52:12;1.17;;;0.93;;
8187;SDS011;4135;49.184;9.722;2023-02-13T04:54:43;3.30;;;1.40;;
8187;SDS011;4135;49.184;9.722;2023-02-13T04:57:12;2.50;;;1.40;;
8187;SDS011;4135;49.184;9.722;2023-02-13T04:59:43;2.13;;;1.23;;
8187;SDS011;4135;49.184;9.722;2023-02-13T05:02:12;1.25;;;0.90;;
8187;SDS011;4135;49.184;9.722;2023-02-13T05:04:42;1.33;;;0.93;;
8187;SDS011;4135;49.184;9.722;2023-02-13T05:07:11;1.50;;;1.10;;
8187;SDS011;4135;49.184;9.722;2023-02-13T05:09:41;1.63;;;1.10;;
8187;SDS011;4135;49.184;9.722;2023-02-13T05:12:10;3.20;;;1.13;;
8187;SDS011;4135;49.184;9.722;2023-02-13T05:14:40;1.52;;;1.33;;
8187;SDS011;4135;49.184;9.722;2023-02-13T05:17:09;1.88;;;1.10;;
8187;SDS011;4135;49.184;9.722;2023-02-13T05:19:39;1.52;;;0.98;;
8187;SDS011;4135;49.184;9.722;2023-02-13T05:22:09;1.73;;;1.10;;
8187;SDS011;4135;49.184;9.722;2023-02-13T05:24:57;1.60;;;1.10;;
8187;SDS011;4135;49.184;9.722;2023-02-13T05:27:27;3.53;;;1.50;;
8187;SDS011;4135;49.184;9.722;2023-02-13T05:29:56;1.75;;;1.33;;
8187;SDS011;4135;49.184;9.722;2023-02-13T05:32:26;1.38;;;1.30;;
8187;SDS011;4135;49.184;9.722;2023-02-13T05:34:55;6.57;;;1.10;;
8187;SDS011;4135;49.184;9.722;2023-02-13T05:37:25;13.35;;;1.63;;
8187;SDS011;4135;49.184;9.722;2023-02-13T05:39:54;3.63;;;1.35;;
8187;SDS011;4135;49.184;9.722;2023-02-13T05:42:24;3.88;;;1.30;;
8187;SDS011;4135;49.184;9.722;2023-02-13T05:44:53;2.75;;;1.55;;
8187;SDS011;4135;49.184;9.722;2023-02-13T05:47:23;2.47;;;1.27;;
8187;SDS011;4135;49.184;9.722;2023-02-13T05:49:52;4.07;;;1.33;;
8187;SDS011;4135;49.184;9.722;2023-02-13T05:52:22;3.45;;;1.50;;
8187;SDS011;4135;49.184;9.722;2023-02-13T05:54:51;3.10;;;1.30;;
8187;SDS011;4135;49.184;9.722;2023-02-13T05:57:21;1.83;;;0.98;;
8187;SDS011;4135;49.184;9.722;2023-02-13T05:59:50;2.38;;;1.00;;
8187;SDS011;4135;49.184;9.722;2023-02-13T06:02:20;2.50;;;1.15;;
8187;SDS011;4135;49.184;9.722;2023-02-13T06:04:49;2.67;;;1.67;;
8187;SDS011;4135;49.184;9.722;2023-02-13T06:07:19;1.42;;;1.15;;
8187;SDS011;4135;49.184;9.722;2023-02-13T06:09:48;4.90;;;1.30;;
8187;SDS011;4135;49.184;9.722;2023-02-13T06:12:18;1.58;;;1.05;;
8187;SDS011;4135;49.184;9.722;2023-02-13T06:14:47;1.90;;;1.15;;
8187;SDS011;4135;49.184;9.722;2023-02-13T06:17:17;2.47;;;1.38;;
8187;SDS011;4135;49.184;9.722;2023-02-13T06:19:46;3.22;;;1.20;;
8187;SDS011;4135;49.184;9.722;2023-02-13T06:22:16;3.20;;;1.85;;
8187;SDS011;4135;49.184;9.722;2023-02-13T06:24:45;2.08;;;1.63;;
8187;SDS011;4135;49.184;9.722;2023-02-13T06:27:15;3.63;;;1.33;;
8187;SDS011;4135;49.184;9.722;2023-02-13T06:29:44;1.48;;;1.00;;
8187;SDS011;4135;49.184;9.722;2023-02-13T06:32:14;2.90;;;1.17;;
8187;SDS011;4135;49.184;9.722;2023-02-13T06:34:43;2.88;;;1.15;;
8187;SDS011;4135;49.184;9.722;2023-02-13T06:37:13;2.13;;;1.40;;
8187;SDS011;4135;49.184;9.722;2023-02-13T06:39:42;2.13;;;1.50;;
8187;SDS011;4135;49.184;9.722;2023-02-13T06:42:12;5.88;;;1.77;;
8187;SDS011;4135;49.184;9.722;2023-02-13T06:44:41;4.07;;;1.38;;
8187;SDS011;4135;49.184;9.722;2023-02-13T06:47:11;2.80;;;1.80;;
8187;SDS011;4135;49.184;9.722;2023-02-13T06:49:40;4.75;;;2.00;;
8187;SDS011;4135;49.184;9.722;2023-02-13T06:52:10;5.38;;;1.92;;
8187;SDS011;4135;49.184;9.722;2023-02-13T06:54:39;5.13;;;2.05;;
8187;SDS011;4135;49.184;9.722;2023-02-13T06:57:09;7.28;;;2.03;;
8187;SDS011;4135;49.184;9.722;2023-02-13T06:59:38;4.03;;;1.67;;
8187;SDS011;4135;49.184;9.722;2023-02-13T07:02:09;3.83;;;1.60;;
8187;SDS011;4135;49.184;9.722;2023-02-13T07:04:39;7.20;;;1.80;;
8187;SDS011;4135;49.184;9.722;2023-02-13T07:07:09;3.97;;;1.23;;
8187;SDS011;4135;49.184;9.722;2023-02-13T07:09:38;4.28;;;1.90;;
8187;SDS011;4135;49.184;9.722;2023-02-13T07:12:09;7.72;;;1.70;;
8187;SDS011;4135;49.184;9.722;2023-02-13T07:14:38;5.75;;;1.70;;
8187;SDS011;4135;49.184;9.722;2023-02-13T07:17:08;2.65;;;1.35;;
8187;SDS011;4135;49.184;9.722;2023-02-13T07:19:39;1.67;;;1.25;;
8187;SDS011;4135;49.184;9.722;2023-02-13T07:22:08;5.05;;;1.55;;
8187;SDS011;4135;49.184;9.722;2023-02-13T07:24:38;5.18;;;1.55;;
8187;SDS011;4135;49.184;9.722;2023-02-13T07:27:07;6.40;;;1.70;;
8187;SDS011;4135;49.184;9.722;2023-02-13T07:29:37;3.35;;;1.13;;
8187;SDS011;4135;49.184;9.722;2023-02-13T07:32:06;5.35;;;1.42;;
8187;SDS011;4135;49.184;9.722;2023-02-13T07:34:37;3.75;;;1.75;;
8187;SDS011;4135;49.184;9.722;2023-02-13T07:37:06;14.63;;;1.90;;
8187;SDS011;4135;49.184;9.722;2023-02-13T07:39:36;5.00;;;2.25;;
8187;SDS011;4135;49.184;9.722;2023-02-13T07:42:06;9.20;;;1.88;;
8187;SDS011;4135;49.184;9.722;2023-02-13T07:44:36;5.72;;;1.88;;
8187;SDS011;4135;49.184;9.722;2023-02-13T07:47:05;6.35;;;1.75;;
8187;SDS011;4135;49.184;9.722;2023-02-13T07:49:35;4.32;;;1.50;;
8187;SDS011;4135;49.184;9.722;2023-02-13T07:52:05;8.07;;;2.00;;
8187;SDS011;4135;49.184;9.722;2023-02-13T07:54:35;7.65;;;1.67;;
8187;SDS011;4135;49.184;9.722;2023-02-13T07:57:05;5.97;;;2.08;;
8187;SDS011;4135;49.184;9.722;2023-02-13T07:59:34;3.42;;;1.63;;
8187;SDS011;4135;49.184;9.722;2023-02-13T08:02:04;5.28;;;1.42;;
8187;SDS011;4135;49.184;9.722;2023-02-13T08:04:33;6.32;;;1.40;;
8187;SDS011;4135;49.184;9.722;2023-02-13T08:07:03;5.07;;;2.33;;
8187;SDS011;4135;49.184;9.722;2023-02-13T08:09:32;5.75;;;1.70;;
8187;SDS011;4135;49.184;9.722;2023-02-13T08:12:20;2.55;;;1.33;;
8187;SDS011;4135;49.184;9.722;2023-02-13T08:14:51;5.22;;;1.08;;
8187;SDS011;4135;49.184;9.722;2023-02-13T08:17:21;3.35;;;1.48;;
8187;SDS011;4135;49.184;9.722;2023-02-13T08:19:51;7.55;;;1.70;;
8187;SDS011;4135;49.184;9.722;2023-02-13T08:22:20;5.57;;;1.75;;
8187;SDS011;4135;49.184;9.722;2023-02-13T08:24:50;3.63;;;1.25;;
8187;SDS011;4135;49.184;9.722;2023-02-13T08:27:20;3.78;;;1.50;;
8187;SDS011;4135;49.184;9.722;2023-02-13T08:29:50;3.80;;;1.45;;
8187;SDS011;4135;49.184;9.722;2023-02-13T08:32:20;7.10;;;1.92;;
8187;SDS011;4135;49.184;9.722;2023-02-13T08:34:50;3.78;;;1.70;;
8187;SDS011;4135;49.184;9.722;2023-02-13T08:37:20;6.10;;;1.50;;
8187;SDS011;4135;49.184;9.722;2023-02-13T08:39:49;2.03;;;1.10;;
8187;SDS011;4135;49.184;9.722;2023-02-13T08:42:19;17.63;;;1.70;;
8187;SDS011;4135;49.184;9.722;2023-02-13T08:44:48;3.65;;;1.73;;
8187;SDS011;4135;49.184;9.722;2023-02-13T08:47:18;2.95;;;1.65;;
8187;SDS011;4135;49.184;9.722;2023-02-13T08:49:48;3.33;;;1.42;;
8187;SDS011;4135;49.184;9.722;2023-02-13T08:52:17;5.25;;;1.83;;
8187;SDS011;4135;49.184;9.722;2023-02-13T08:54:46;3.70;;;1.50;;
8187;SDS011;4135;49.184;9.722;2023-02-13T08:57:16;6.47;;;2.13;;
8187;SDS011;4135;49.184;9.722;2023-02-13T08:59:45;4.50;;;1.70;;
8187;SDS011;4135;49.184;9.722;2023-02-13T09:02:15;5.07;;;2.03;;
8187;SDS011;4135;49.184;9.722;2023-02-13T09:04:44;4.63;;;1.90;;
8187;SDS011;4135;49.184;9.722;2023-02-13T09:07:14;3.22;;;1.55;;
8187;SDS011;4135;49.184;9.722;2023-02-13T09:09:43;4.03;;;1.33;;
8187;SDS011;4135;49.184;9.722;2023-02-13T09:12:13;3.67;;;1.45;;
8187;SDS011;4135;49.184;9.722;2023-02-13T09:14:42;4.10;;;1.90;;
8187;SDS011;4135;49.184;9.722;2023-02-13T09:17:12;6.72;;;1.85;;
8187;SDS011;4135;49.184;9.722;2023-02-13T09:19:46;4.22;;;1.63;;
8187;SDS011;4135;49.184;9.722;2023-02-13T09:22:15;12.68;;;1.48;;
8187;SDS011;4135;49.184;9.722;2023-02-13T09:24:45;6.55;;;1.65;;
8187;SDS011;4135;49.184;9.722;2023-02-13T09:27:14;2.92;;;1.42;;
8187;SDS011;4135;49.184;9.722;2023-02-13T09:29:44;2.60;;;1.90;;
8187;SDS011;4135;49.184;9.722;2023-02-13T09:32:13;3.65;;;1.60;;
8187;SDS011;4135;49.184;9.722;2023-02-13T09:34:43;3.00;;;1.50;;
8187;SDS011;4135;49.184;9.722;2023-02-13T09:37:13;4.25;;;1.77;;
8187;SDS011;4135;49.184;9.722;2023-02-13T09:39:42;4.68;;;1.88;;
8187;SDS011;4135;49.184;9.722;2023-02-13T09:42:26;2.95;;;1.30;;
8187;SDS011;4135;49.184;9.722;2023-02-13T09:45:00;2.60;;;1.60;;
8187;SDS011;4135;49.184;9.722;2023-02-13T09:47:36;2.83;;;1.70;;
8187;SDS011;4135;49.184;9.722;2023-02-13T09:52:51;4.15;;;1.70;;
8187;SDS011;4135;49.184;9.722;2023-02-13T09:55:24;2.92;;;1.63;;
8187;SDS011;4135;49.184;9.722;2023-02-13T09:58:18;4.18;;;1.63;;
8187;SDS011;4135;49.184;9.722;2023-02-13T10:07:06;4.75;;;2.10;;
8187;SDS011;4135;49.184;9.722;2023-02-13T10:09:54;5.90;;;2.53;;
8187;SDS011;4135;49.184;9.722;2023-02-13T10:18:27;7.07;;;1.77;;
8187;SDS011;4135;49.184;9.722;2023-02-13T10:21:04;4.07;;;1.88;;
8187;SDS011;4135;49.184;9.722;2023-02-13T10:23:43;3.08;;;1.83;;
8187;SDS011;4135;49.184;9.722;2023-02-13T10:26:20;6.00;;;1.70;;
8187;SDS011;4135;49.184;9.722;2023-02-13T10:28:57;5.60;;;2.83;;
8187;SDS011;4135;49.184;9.722;2023-02-13T10:31:50;3.50;;;2.35;;
8187;SDS011;4135;49.184;9.722;2023-02-13T10:34:24;4.53;;;1.80;;
8187;SDS011;4135;49.184;9.722;2023-02-13T10:36:56;4.38;;;2.03;;
8187;SDS011;4135;49.184;9.722;2023-02-13T10:39:27;3.40;;;1.90;;
8187;SDS011;4135;49.184;9.722;2023-02-13T10:42:05;5.70;;;1.95;;
8187;SDS011;4135;49.184;9.722;2023-02-13T10:45:08;3.97;;;1.95;;
8187;SDS011;4135;49.184;9.722;2023-02-13T10:48:04;3.55;;;1.60;;
8187;SDS011;4135;49.184;9.722;2023-02-13T10:53:52;3.95;;;1.90;;
8187;SDS011;4135;49.184;9.722;2023-02-13T10:56:38;3.10;;;1.50;;
8187;SDS011;4135;49.184;9.722;2023-02-13T10:59:34;2.28;;;1.60;;
8187;SDS011;4135;49.184;9.722;2023-02-13T11:02:26;2.88;;;2.28;;
8187;SDS011;4135;49.184;9.722;2023-02-13T11:04:58;6.40;;;2.05;;
8187;SDS011;4135;49.184;9.722;2023-02-13T11:07:43;2.47;;;1.83;;
8187;SDS011;4135;49.184;9.722;2023-02-13T11:12:46;4.05;;;2.28;;
8187;SDS011;4135;49.184;9.722;2023-02-13T11:17:49;1.75;;;1.65;;
8187;SDS011;4135;49.184;9.722;2023-02-13T11:28:38;2.38;;;1.90;;
8187;SDS011;4135;49.184;9.722;2023-02-13T11:31:28;2.42;;;1.80;;
8187;SDS011;4135;49.184;9.722;2023-02-13T11:33:59;2.78;;;1.92;;
8187;SDS011;4135;49.184;9.722;2023-02-13T11:37:37;2.10;;;1.90;;
8187;SDS011;4135;49.184;9.722;2023-02-13T11:39:50;2.20;;;1.83;;
8187;SDS011;4135;49.184;9.722;2023-02-13T11:42:26;2.60;;;1.70;;
8187;SDS011;4135;49.184;9.722;2023-02-13T11:45:06;4.65;;;2.05;;
8187;SDS011;4135;49.184;9.722;2023-02-13T11:47:56;2.60;;;1.60;;
8187;SDS011;4135;49.184;9.722;2023-02-13T11:50:27;4.78;;;1.33;;
8187;SDS011;4135;49.184;9.722;2023-02-13T11:53:17;2.80;;;1.90;;
8187;SDS011;4135;49.184;9.722;2023-02-13T11:56:06;3.13;;;1.63;;
8187;SDS011;4135;49.184;9.722;2023-02-13T11:58:37;3.45;;;1.73;;
8187;SDS011;4135;49.184;9.722;2023-02-13T12:01:09;7.60;;;1.75;;
8187;SDS011;4135;49.184;9.722;2023-02-13T12:03:39;1.88;;;1.15;;
8187;SDS011;4135;49.184;9.722;2023-02-13T12:06:11;2.58;;;1.50;;
8187;SDS011;4135;49.184;9.722;2023-02-13T12:08:44;2.85;;;1.70;;
8187;SDS011;4135;49.184;9.722;2023-02-13T12:11:25;2.42;;;1.52;;
8187;SDS011;4135;49.184;9.722;2023-02-13T12:14:59;6.88;;;1.83;;
8187;SDS011;4135;49.184;9.722;2023-02-13T12:17:13;3.50;;;1.38;;
8187;SDS011;4135;49.184;9.722;2023-02-13T12:19:47;1.58;;;1.30;;
8187;SDS011;4135;49.184;9.722;2023-02-13T12:25:41;7.68;;;1.30;;
8187;SDS011;4135;49.184;9.722;2023-02-13T12:28:32;2.22;;;1.40;;
8187;SDS011;4135;49.184;9.722;2023-02-13T12:39:25;3.65;;;2.33;;
8187;SDS011;4135;49.184;9.722;2023-02-13T12:42:07;3.25;;;2.08;;
8187;SDS011;4135;49.184;9.722;2023-02-13T12:47:32;4.13;;;2.88;;
8187;SDS011;4135;49.184;9.722;2023-02-13T12:55:54;3.33;;;2.63;;
8187;SDS011;4135;49.184;9.722;2023-02-13T12:58:56;4.35;;;2.13;;
8187;SDS011;4135;49.184;9.722;2023-02-13T13:04:32;5.90;;;2.88;;
8187;SDS011;4135;49.184;9.722;2023-02-13T13:10:17;4.10;;;2.45;;
8187;SDS011;4135;49.184;9.722;2023-02-13T13:18:54;2.25;;;1.70;;
8187;SDS011;4135;49.184;9.722;2023-02-13T13:24:28;3.00;;;1.77;;
8187;SDS011;4135;49.184;9.722;2023-02-13T13:26:59;2.78;;;1.80;;
8187;SDS011;4135;49.184;9.722;2023-02-13T13:29:44;3.78;;;1.55;;
8187;SDS011;4135;49.184;9.722;2023-02-13T13:32:19;5.65;;;1.85;;
8187;SDS011;4135;49.184;9.722;2023-02-13T13:34:50;3.53;;;1.50;;
8187;SDS011;4135;49.184;9.722;2023-02-13T13:42:33;7.35;;;1.73;;
8187;SDS011;4135;49.184;9.722;2023-02-13T13:50:42;2.63;;;1.63;;
8187;SDS011;4135;49.184;9.722;2023-02-13T13:53:16;2.13;;;1.30;;
8187;SDS011;4135;49.184;9.722;2023-02-13T13:59:03;1.63;;;1.23;;
8187;SDS011;4135;49.184;9.722;2023-02-13T14:01:22;2.10;;;1.40;;
8187;SDS011;4135;49.184;9.722;2023-02-13T14:04:00;2.28;;;1.30;;
8187;SDS011;4135;49.184;9.722;2023-02-13T14:09:58;5.88;;;2.42;;
8187;SDS011;4135;49.184;9.722;2023-02-13T14:14:52;4.03;;;1.90;;
8187;SDS011;4135;49.184;9.722;2023-02-13T14:22:54;7.47;;;2.03;;
8187;SDS011;4135;49.184;9.722;2023-02-13T14:25:24;7.43;;;2.60;;
8187;SDS011;4135;49.184;9.722;2023-02-13T14:27:56;6.60;;;1.85;;
8187;SDS011;4135;49.184;9.722;2023-02-13T14:30:35;5.30;;;2.40;;
8187;SDS011;4135;49.184;9.722;2023-02-13T14:33:19;5.25;;;2.40;;
8187;SDS011;4135;49.184;9.722;2023-02-13T14:36:02;5.88;;;2.22;;
8187;SDS011;4135;49.184;9.722;2023-02-13T14:38:35;7.82;;;2.33;;
8187;SDS011;4135;49.184;9.722;2023-02-13T14:41:05;5.63;;;2.25;;
8187;SDS011;4135;49.184;9.722;2023-02-13T14:43:54;4.53;;;2.05;;
8187;SDS011;4135;49.184;9.722;2023-02-13T14:46:31;3.33;;;2.20;;
8187;SDS011;4135;49.184;9.722;2023-02-13T14:49:13;8.15;;;2.47;;
8187;SDS011;4135;49.184;9.722;2023-02-13T14:52:14;3.25;;;1.40;;
8187;SDS011;4135;49.184;9.722;2023-02-13T14:54:46;4.30;;;2.10;;
8187;SDS011;4135;49.184;9.722;2023-02-13T14:57:19;5.15;;;2.13;;
8187;SDS011;4135;49.184;9.722;2023-02-13T14:59:57;4.05;;;1.88;;
8187;SDS011;4135;49.184;9.722;2023-02-13T15:02:35;4.07;;;2.50;;
8187;SDS011;4135;49.184;9.722;2023-02-13T15:05:17;3.70;;;2.30;;
8187;SDS011;4135;49.184;9.722;2023-02-13T15:07:48;7.97;;;2.03;;
8187;SDS011;4135;49.184;9.722;2023-02-13T15:10:33;6.05;;;2.90;;
8187;SDS011;4135;49.184;9.722;2023-02-13T15:13:14;3.00;;;2.10;;
8187;SDS011;4135;49.184;9.722;2023-02-13T15:15:53;1.50;;;1.45;;
8187;SDS011;4135;49.184;9.722;2023-02-13T15:18:30;5.88;;;1.90;;
8187;SDS011;4135;49.184;9.722;2023-02-13T15:21:05;4.78;;;2.35;;
8187;SDS011;4135;49.184;9.722;2023-02-13T15:23:42;9.27;;;2.60;;
8187;SDS011;4135;49.184;9.722;2023-02-13T15:26:17;5.95;;;1.98;;
8187;SDS011;4135;49.184;9.722;2023-02-13T15:29:00;3.67;;;1.80;;
8187;SDS011;4135;49.184;9.722;2023-02-13T15:31:32;6.93;;;1.90;;
8187;SDS011;4135;49.184;9.722;2023-02-13T15:34:02;6.03;;;1.65;;
8187;SDS011;4135;49.184;9.722;2023-02-13T15:36:33;11.07;;;3.10;;
8187;SDS011;4135;49.184;9.722;2023-02-13T15:39:14;5.20;;;1.95;;
8187;SDS011;4135;49.184;9.722;2023-02-13T15:41:47;8.25;;;2.22;;
8187;SDS011;4135;49.184;9.722;2023-02-13T15:44:19;8.57;;;2.08;;
8187;SDS011;4135;49.184;9.722;2023-02-13T15:46:53;7.45;;;2.30;;
8187;SDS011;4135;49.184;9.722;2023-02-13T15:49:25;5.00;;;2.10;;
8187;SDS011;4135;49.184;9.722;2023-02-13T15:52:02;8.02;;;2.53;;
8187;SDS011;4135;49.184;9.722;2023-02-13T15:54:34;2.65;;;1.60;;
8187;SDS011;4135;49.184;9.722;2023-02-13T15:57:04;4.88;;;2.38;;
8187;SDS011;4135;49.184;9.722;2023-02-13T15:59:35;4.40;;;2.35;;
8187;SDS011;4135;49.184;9.722;2023-02-13T16:02:40;5.20;;;2.25;;
8187;SDS011;4135;49.184;9.722;2023-02-13T16:05:09;3.95;;;2.38;;
8187;SDS011;4135;49.184;9.722;2023-02-13T16:07:47;3.33;;;1.75;;
8187;SDS011;4135;49.184;9.722;2023-02-13T16:10:24;3.80;;;2.63;;
8187;SDS011;4135;49.184;9.722;2023-02-13T16:13:14;9.57;;;2.63;;
8187;SDS011;4135;49.184;9.722;2023-02-13T16:15:45;5.22;;;2.00;;
8187;SDS011;4135;49.184;9.722;2023-02-13T16:18:17;5.68;;;2.70;;
8187;SDS011;4135;49.184;9.722;2023-02-13T16:20:51;6.10;;;2.00;;
8187;SDS011;4135;49.184;9.722;2023-02-13T16:23:23;7.35;;;2.70;;
8187;SDS011;4135;49.184;9.722;2023-02-13T16:25:52;6.78;;;2.33;;
8187;SDS011;4135;49.184;9.722;2023-02-13T16:28:31;4.78;;;2.22;;
8187;SDS011;4135;49.184;9.722;2023-02-13T16:31:02;7.45;;;2.65;;
8187;SDS011;4135;49.184;9.722;2023-02-13T16:33:36;5.60;;;2.35;;
8187;SDS011;4135;49.184;9.722;2023-02-13T16:38:48;4.53;;;2.58;;
8187;SDS011;4135;49.184;9.722;2023-02-13T16:43:59;2.30;;;1.60;;
8187;SDS011;4135;49.184;9.722;2023-02-13T16:51:43;6.40;;;2.55;;
8187;SDS011;4135;49.184;9.722;2023-02-13T16:54:21;16.88;;;2.80;;
8187;SDS011;4135;49.184;9.722;2023-02-13T16:57:01;6.43;;;3.10;;
8187;SDS011;4135;49.184;9.722;2023-02-13T17:02:24;8.48;;;3.50;;
8187;SDS011;4135;49.184;9.722;2023-02-13T17:07:39;6.53;;;3.95;;
8187;SDS011;4135;49.184;9.722;2023-02-13T17:15:37;7.00;;;3.83;;
8187;SDS011;4135;49.184;9.722;2023-02-13T17:18:10;6.05;;;4.40;;
8187;SDS011;4135;49.184;9.722;2023-02-13T17:20:40;5.72;;;3.50;;
8187;SDS011;4135;49.184;9.722;2023-02-13T17:23:19;8.30;;;3.40;;
8187;SDS011;4135;49.184;9.722;2023-02-13T17:25:51;8.60;;;4.28;;
8187;SDS011;4135;49.184;9.722;2023-02-13T17:28:22;6.20;;;3.85;;
8187;SDS011;4135;49.184;9.722;2023-02-13T17:30:54;4.68;;;4.00;;
8187;SDS011;4135;49.184;9.722;2023-02-13T17:33:27;5.32;;;4.05;;
8187;SDS011;4135;49.184;9.722;2023-02-13T17:35:58;6.30;;;4.18;;
8187;SDS011;4135;49.184;9.722;2023-02-13T17:38:27;5.22;;;3.83;;
8187;SDS011;4135;49.184;9.722;2023-02-13T17:40:57;6.32;;;4.03;;
8187;SDS011;4135;49.184;9.722;2023-02-13T17:43:26;5.65;;;3.63;;
8187;SDS011;4135;49.184;9.722;2023-02-13T17:45:57;5.97;;;3.97;;
8187;SDS011;4135;49.184;9.722;2023-02-13T17:48:27;9.50;;;3.67;;
8187;SDS011;4135;49.184;9.722;2023-02-13T17:50:57;5.22;;;4.03;;
8187;SDS011;4135;49.184;9.722;2023-02-13T17:53:27;7.15;;;3.83;;
8187;SDS011;4135;49.184;9.722;2023-02-13T17:55:57;6.63;;;3.97;;
8187;SDS011;4135;49.184;9.722;2023-02-13T17:58:27;8.20;;;4.15;;
8187;SDS011;4135;49.184;9.722;2023-02-13T18:00:56;5.35;;;3.50;;
8187;SDS011;4135;49.184;9.722;2023-02-13T18:03:26;10.07;;;3.53;;
8187;SDS011;4135;49.184;9.722;2023-02-13T18:05:56;6.80;;;4.07;;
8187;SDS011;4135;49.184;9.722;2023-02-13T18:08:25;6.68;;;3.28;;
8187;SDS011;4135;49.184;9.722;2023-02-13T18:10:55;8.18;;;3.67;;
8187;SDS011;4135;49.184;9.722;2023-02-13T18:13:24;5.68;;;2.97;;
8187;SDS011;4135;49.184;9.722;2023-02-13T18:15:54;6.50;;;3.40;;
8187;SDS011;4135;49.184;9.722;2023-02-13T18:18:23;6.28;;;3.60;;
8187;SDS011;4135;49.184;9.722;2023-02-13T18:20:53;7.28;;;3.13;;
8187;SDS011;4135;49.184;9.722;2023-02-13T18:23:24;4.25;;;2.78;;
8187;SDS011;4135;49.184;9.722;2023-02-13T18:26:01;6.75;;;3.40;;
8187;SDS011;4135;49.184;9.722;2023-02-13T18:28:32;3.83;;;2.30;;
8187;SDS011;4135;49.184;9.722;2023-02-13T18:31:02;4.15;;;3.03;;